MMTP/TAP METAR and TAF weather

Enter ICAO airport designator
Station Type Date Time Source
MMTP METAR 2022/01/23 10:40 UTC NOAA

MMTP 231040Z 00000KT 9SM SKC 19/19 A2986


Station Type Date Time Source
MMTP Decoded METAR 2022/01/23 10:40 UTC NOAA

Tapachula , Mexico (MMTP) 14-47N 092-23W
Jan 23, 2022 - 05:40 AM EST / 2022.01.23 1040 UTC
Wind: Calm:0
Visibility: 9 mile(s):0
Sky conditions: clear
Temperature: 66 F (19 C)
Dew Point: 66 F (19 C)
Relative Humidity: 100%
Pressure (altimeter): 29.86 in. Hg (1011 hPa)
ob: MMTP 231040Z 00000KT 9SM SKC 19/19 A2986
cycle: 10

Station Type Date Time Source
MMTP TAF 2022/01/23 12:11 UTC NOAA

TAF MMTP 231104Z 2312/2418 00000KT P6SM SKC
FM231800 23010KT P6SM SCT020 SCT100
FM240600 00000KT P6SM SKC
FM241700 23010KT P6SM SCT020 SCT100

Example: see airport list